createdAt,value
2022-12-01T00:00:44.397Z,3.90
2022-12-01T00:03:31.408Z,3.67
2022-12-01T00:06:19.957Z,2.53
2022-12-01T00:09:23.707Z,1.53
2022-12-01T00:12:10.143Z,1.77
2022-12-01T00:15:01.178Z,4.43
2022-12-01T00:17:48.060Z,3.63
2022-12-01T00:20:35.166Z,1.90
2022-12-01T00:23:22.729Z,2.00
2022-12-01T00:26:08.779Z,2.57
2022-12-01T00:28:55.697Z,2.00
2022-12-01T00:31:41.839Z,2.60
2022-12-01T00:34:28.436Z,2.07
2022-12-01T00:37:15.041Z,1.27
2022-12-01T00:40:02.623Z,2.63
2022-12-01T00:42:48.945Z,2.60
2022-12-01T00:45:35.542Z,2.00
2022-12-01T00:48:21.916Z,2.80
2022-12-01T00:51:08.303Z,2.40
2022-12-01T00:53:54.437Z,3.10
2022-12-01T00:56:42.237Z,2.60
2022-12-01T00:59:28.444Z,4.10
2022-12-01T01:02:14.770Z,2.23
2022-12-01T01:05:01.308Z,2.53
2022-12-01T01:07:47.648Z,3.03
2022-12-01T01:10:34.029Z,2.87
2022-12-01T01:13:21.863Z,2.37
2022-12-01T01:16:09.118Z,2.00
2022-12-01T01:18:55.773Z,2.23
2022-12-01T01:21:42.492Z,1.40
2022-12-01T01:24:28.516Z,2.40
2022-12-01T01:27:14.846Z,2.43
2022-12-01T01:30:02.937Z,2.60
2022-12-01T01:32:49.275Z,2.93
2022-12-01T01:35:35.731Z,3.17
2022-12-01T01:38:21.985Z,1.80
2022-12-01T01:41:08.637Z,2.07
2022-12-01T01:43:56.510Z,2.47
2022-12-01T01:46:43.975Z,4.17
2022-12-01T01:49:30.335Z,2.10
2022-12-01T01:52:17.036Z,3.30
2022-12-01T01:55:03.548Z,2.40
2022-12-01T01:57:49.660Z,3.90
2022-12-01T02:00:36.989Z,2.23
2022-12-01T02:03:26.060Z,2.43
2022-12-01T02:06:13.760Z,2.40
2022-12-01T02:09:00.090Z,1.70
2022-12-01T02:11:55.247Z,4.23
2022-12-01T02:14:48.361Z,2.00
2022-12-01T02:17:41.761Z,1.43
2022-12-01T02:20:46.073Z,2.50
2022-12-01T02:23:53.381Z,2.70
2022-12-01T02:26:45.467Z,2.33
2022-12-01T02:29:40.125Z,2.90
2022-12-01T02:32:31.203Z,1.60
2022-12-01T02:35:22.165Z,2.67
2022-12-01T02:38:11.420Z,3.33
2022-12-01T02:40:59.823Z,2.00
2022-12-01T02:43:48.015Z,2.43
2022-12-01T02:46:36.658Z,1.60
2022-12-01T02:49:26.417Z,3.07
2022-12-01T02:52:12.717Z,2.70
2022-12-01T02:54:58.966Z,2.53
2022-12-01T02:57:45.512Z,2.83
2022-12-01T03:00:32.217Z,1.67
2022-12-01T03:03:26.662Z,3.60
2022-12-01T03:06:16.989Z,3.97
2022-12-01T03:09:05.923Z,3.07
2022-12-01T03:12:01.901Z,3.73
2022-12-01T03:14:52.614Z,3.80
2022-12-01T03:17:41.183Z,3.00
2022-12-01T03:20:33.144Z,3.07
2022-12-01T03:23:23.047Z,4.33
2022-12-01T03:26:11.224Z,2.00
2022-12-01T03:28:59.720Z,3.27
2022-12-01T03:31:49.109Z,3.37
2022-12-01T03:34:37.623Z,3.57
2022-12-01T03:37:26.302Z,2.20
2022-12-01T03:40:17.877Z,3.17
2022-12-01T03:43:07.484Z,1.77
2022-12-01T03:45:56.539Z,3.00
2022-12-01T03:48:43.670Z,3.00
2022-12-01T03:51:33.331Z,2.20
2022-12-01T03:54:20.771Z,6.93
2022-12-01T03:57:11.097Z,3.57
2022-12-01T03:59:57.727Z,3.97
2022-12-01T04:02:45.765Z,4.83
2022-12-01T04:05:33.578Z,3.77
2022-12-01T04:08:19.791Z,7.07
2022-12-01T04:11:32.220Z,3.03
2022-12-01T04:14:19.636Z,5.90
2022-12-01T04:17:05.999Z,2.70
2022-12-01T04:19:52.515Z,2.70
2022-12-01T04:22:39.027Z,5.10
2022-12-01T04:25:25.088Z,3.33
2022-12-01T04:28:11.737Z,4.93
2022-12-01T04:30:59.521Z,6.10
2022-12-01T04:33:46.131Z,3.13
2022-12-01T04:36:34.556Z,4.57
2022-12-01T04:39:20.932Z,3.13
2022-12-01T04:42:07.262Z,5.07
2022-12-01T04:44:53.366Z,4.23
2022-12-01T04:47:41.139Z,2.37
2022-12-01T04:50:27.228Z,4.87
2022-12-01T04:53:13.222Z,4.50
2022-12-01T04:56:00.572Z,4.97
2022-12-01T04:58:46.849Z,6.37
2022-12-01T05:01:33.338Z,3.10
2022-12-01T05:04:21.359Z,5.27
2022-12-01T05:07:07.770Z,5.77
2022-12-01T05:09:55.110Z,4.57
2022-12-01T05:12:41.934Z,4.67
2022-12-01T05:15:27.807Z,7.03
2022-12-01T05:18:14.406Z,2.87
2022-12-01T05:21:01.017Z,3.87
2022-12-01T05:23:47.472Z,3.77
2022-12-01T05:26:33.575Z,5.83
2022-12-01T05:29:20.104Z,4.13
2022-12-01T05:32:06.685Z,3.60
2022-12-01T05:34:53.093Z,4.03
2022-12-01T05:37:41.014Z,5.10
2022-12-01T05:40:27.071Z,5.77
2022-12-01T05:43:13.496Z,3.50
2022-12-01T05:46:00.296Z,4.10
2022-12-01T05:48:47.259Z,3.07
2022-12-01T05:51:33.624Z,4.27
2022-12-01T05:54:21.455Z,4.40
2022-12-01T05:57:07.867Z,3.47
2022-12-01T05:59:54.220Z,4.57
2022-12-01T06:02:40.607Z,4.93
2022-12-01T06:05:26.699Z,4.67
2022-12-01T06:08:12.891Z,5.93
2022-12-01T06:11:00.520Z,3.33
2022-12-01T06:13:46.986Z,4.03
2022-12-01T06:16:33.660Z,3.40
2022-12-01T06:19:20.175Z,1.90
2022-12-01T06:22:06.622Z,3.30
2022-12-01T06:24:52.883Z,3.90
2022-12-01T06:27:40.736Z,2.10
2022-12-01T06:30:27.061Z,2.43
2022-12-01T06:33:13.259Z,2.23
2022-12-01T06:36:00.085Z,5.03
2022-12-01T06:38:46.200Z,6.23
2022-12-01T06:41:32.836Z,2.97
2022-12-01T06:44:20.386Z,3.27
2022-12-01T06:47:08.246Z,4.30
2022-12-01T06:49:54.668Z,3.90
2022-12-01T06:52:41.072Z,4.67
2022-12-01T06:55:27.662Z,7.70
2022-12-01T06:58:14.535Z,4.03
2022-12-01T07:01:08.459Z,2.30
2022-12-01T07:03:55.008Z,4.27
2022-12-01T07:06:41.718Z,4.93
2022-12-01T07:09:28.161Z,3.03
2022-12-01T07:12:14.275Z,2.00
2022-12-01T07:15:00.608Z,5.00
2022-12-01T07:17:48.221Z,4.57
2022-12-01T07:20:34.505Z,4.20
2022-12-01T07:23:21.444Z,4.50
2022-12-01T07:26:09.004Z,2.63
2022-12-01T07:28:55.651Z,3.23
2022-12-01T07:31:42.450Z,4.17
2022-12-01T07:34:29.920Z,2.87
2022-12-01T07:37:16.366Z,4.83
2022-12-01T07:40:02.504Z,2.80
2022-12-01T07:42:49.114Z,3.73
2022-12-01T07:45:35.814Z,7.80
2022-12-01T07:48:22.548Z,1.83
2022-12-01T07:51:12.069Z,2.93
2022-12-01T07:54:02.439Z,6.57
2022-12-01T07:56:48.908Z,4.13
2022-12-01T07:59:35.299Z,5.50
2022-12-01T08:02:21.471Z,4.13
2022-12-01T08:05:08.026Z,4.83
2022-12-01T08:07:56.206Z,3.00
2022-12-01T08:10:42.806Z,3.37
2022-12-01T08:13:29.344Z,5.20
2022-12-01T08:16:17.316Z,3.17
2022-12-01T08:19:03.805Z,3.03
2022-12-01T08:21:50.055Z,3.60
2022-12-01T08:24:37.903Z,6.63
2022-12-01T08:27:24.017Z,3.77
2022-12-01T08:30:11.159Z,5.37
2022-12-01T08:32:58.508Z,5.50
2022-12-01T08:35:44.909Z,4.80
2022-12-01T08:38:30.924Z,3.97
2022-12-01T08:41:18.821Z,3.07
2022-12-01T08:44:05.247Z,6.40
2022-12-01T08:46:51.290Z,6.20
2022-12-01T08:49:37.672Z,4.97
2022-12-01T08:52:24.036Z,3.13
2022-12-01T08:55:10.470Z,4.60
2022-12-01T08:57:58.641Z,3.50
2022-12-01T09:00:45.133Z,3.77
2022-12-01T09:03:31.662Z,3.27
2022-12-01T09:06:20.262Z,6.20
2022-12-01T09:11:53.569Z,2.97
2022-12-01T09:14:41.766Z,3.20
2022-12-01T09:20:16.627Z,9.83
2022-12-01T09:23:03.051Z,2.97
2022-12-01T09:25:49.616Z,5.13
2022-12-01T09:28:35.818Z,9.07
2022-12-01T09:31:24.232Z,6.43
2022-12-01T09:34:13.428Z,3.67
2022-12-01T09:37:00.041Z,4.40
2022-12-01T09:39:46.949Z,2.47
2022-12-01T09:42:35.504Z,2.83
2022-12-01T09:45:26.236Z,3.13
2022-12-01T09:48:21.612Z,3.10
2022-12-01T09:51:10.023Z,2.83
2022-12-01T09:53:57.778Z,2.57
2022-12-01T09:56:45.730Z,2.47
2022-12-01T09:59:34.285Z,3.40
2022-12-01T10:02:27.622Z,2.63
2022-12-01T10:05:16.449Z,4.13
2022-12-01T10:08:04.434Z,3.33
2022-12-01T10:10:52.366Z,3.07
2022-12-01T10:13:38.444Z,4.23
2022-12-01T10:16:27.948Z,3.17
2022-12-01T10:19:16.644Z,2.80
2022-12-01T10:22:17.229Z,3.20
2022-12-01T10:25:08.077Z,2.73
2022-12-01T10:28:01.390Z,5.23
2022-12-01T10:30:49.942Z,3.07
2022-12-01T10:33:39.515Z,6.03
2022-12-01T10:39:18.827Z,4.10
2022-12-01T10:42:07.260Z,3.53
2022-12-01T10:44:54.881Z,2.90
2022-12-01T10:48:01.255Z,3.67
2022-12-01T10:50:50.150Z,2.23
2022-12-01T10:53:37.191Z,3.53
2022-12-01T10:56:23.626Z,3.00
2022-12-01T10:59:20.369Z,2.40
2022-12-01T11:02:17.107Z,3.27
2022-12-01T11:05:05.722Z,3.23
2022-12-01T11:07:54.046Z,2.40
2022-12-01T11:13:36.316Z,3.00
2022-12-01T11:16:36.157Z,6.23
2022-12-01T11:19:28.134Z,11.93
2022-12-01T11:22:21.026Z,19.30
2022-12-01T11:25:19.539Z,8.27
2022-12-01T11:28:06.241Z,4.87
2022-12-01T11:30:56.765Z,2.70
2022-12-01T11:33:45.979Z,1.57
2022-12-01T11:36:39.926Z,3.27
2022-12-01T11:39:29.219Z,3.20
2022-12-01T11:42:21.651Z,2.10
2022-12-01T11:45:19.715Z,3.33
2022-12-01T11:48:08.662Z,4.23
2022-12-01T11:51:02.554Z,3.73
2022-12-01T11:53:48.932Z,3.10
2022-12-01T11:56:35.125Z,5.43
2022-12-01T12:05:37.447Z,9.83
2022-12-01T12:08:30.864Z,4.60
2022-12-01T12:11:19.283Z,2.60
2022-12-01T12:14:11.644Z,5.80
2022-12-01T12:17:20.395Z,3.50
2022-12-01T12:20:21.780Z,3.00
2022-12-01T12:23:24.782Z,3.83
2022-12-01T12:29:14.248Z,2.57
2022-12-01T12:32:06.567Z,4.53
2022-12-01T12:34:55.777Z,2.33
2022-12-01T12:37:48.824Z,5.63
2022-12-01T12:40:42.289Z,7.87
2022-12-01T12:43:33.350Z,2.40
2022-12-01T12:46:23.592Z,7.03
2022-12-01T12:49:20.506Z,2.93
2022-12-01T12:52:09.031Z,4.67
2022-12-01T12:54:59.441Z,2.00
2022-12-01T12:57:47.749Z,3.10
2022-12-01T13:00:36.171Z,2.80
2022-12-01T13:03:29.175Z,2.07
2022-12-01T13:09:15.343Z,5.27
2022-12-01T13:12:04.193Z,2.77
2022-12-01T13:14:56.492Z,2.37
2022-12-01T13:17:49.534Z,3.80
2022-12-01T13:20:37.736Z,1.90
2022-12-01T13:23:24.082Z,6.07
2022-12-01T13:26:10.951Z,2.20
2022-12-01T13:28:59.094Z,5.77
2022-12-01T13:31:46.185Z,10.77
2022-12-01T13:34:34.603Z,4.63
2022-12-01T13:37:26.961Z,3.70
2022-12-01T13:40:21.229Z,4.10
2022-12-01T13:43:16.015Z,12.50
2022-12-01T13:46:04.415Z,3.07
2022-12-01T13:48:52.032Z,10.93
2022-12-01T13:51:55.996Z,12.30
2022-12-01T13:55:00.152Z,1.63
2022-12-01T13:58:06.888Z,1.27
2022-12-01T14:00:53.656Z,1.70
2022-12-01T14:06:29.833Z,23.37
2022-12-01T14:09:18.507Z,5.90
2022-12-01T14:12:06.049Z,12.70
2022-12-01T14:14:55.197Z,4.53
2022-12-01T14:17:41.898Z,9.53
2022-12-01T14:20:31.236Z,6.13
2022-12-01T14:23:25.628Z,6.00
2022-12-01T14:26:17.146Z,15.50
2022-12-01T14:29:11.902Z,11.40
2022-12-01T14:32:25.244Z,6.47
2022-12-01T14:35:15.227Z,9.73
2022-12-01T14:40:53.453Z,10.33
2022-12-01T14:43:57.719Z,18.37
2022-12-01T14:46:45.991Z,9.33
2022-12-01T14:49:35.479Z,7.83
2022-12-01T14:52:32.071Z,6.90
2022-12-01T14:55:21.099Z,11.00
2022-12-01T14:58:08.055Z,29.73
2022-12-01T15:01:05.420Z,14.37
2022-12-01T15:03:53.020Z,15.07
2022-12-01T15:06:39.487Z,40.63
2022-12-01T15:09:35.271Z,9.10
2022-12-01T15:12:27.314Z,2.30
2022-12-01T15:15:23.431Z,9.93
2022-12-01T15:18:22.034Z,4.97
2022-12-01T15:21:11.285Z,5.60
2022-12-01T15:23:58.633Z,6.77
2022-12-01T15:26:47.791Z,4.77
2022-12-01T15:32:32.791Z,4.60
2022-12-01T15:35:20.940Z,4.07
2022-12-01T15:38:08.203Z,4.13
2022-12-01T15:46:51.999Z,6.40
2022-12-01T15:49:49.114Z,2.17
2022-12-01T15:52:42.902Z,2.03
2022-12-01T15:55:30.050Z,2.63
2022-12-01T15:58:20.896Z,7.37
2022-12-01T16:01:09.706Z,6.47
2022-12-01T16:03:58.515Z,7.80
2022-12-01T16:06:52.615Z,5.00
2022-12-01T16:12:28.204Z,5.63
2022-12-01T16:15:15.558Z,5.40
2022-12-01T16:18:01.669Z,8.53
2022-12-01T16:20:49.725Z,9.77
2022-12-01T16:23:36.234Z,5.50
2022-12-01T16:26:22.386Z,3.40
2022-12-01T16:32:20.404Z,7.47
2022-12-01T16:35:07.959Z,11.77
2022-12-01T16:37:55.602Z,4.53
2022-12-01T16:40:42.458Z,2.27
2022-12-01T16:43:29.810Z,3.30
2022-12-01T16:46:16.315Z,2.83
2022-12-01T16:49:02.947Z,1.43
2022-12-01T16:54:44.307Z,1.60
2022-12-01T17:03:06.061Z,2.03
2022-12-01T17:05:52.451Z,1.67
2022-12-01T17:08:38.700Z,2.47
2022-12-01T17:14:13.649Z,2.17
2022-12-01T17:17:00.261Z,1.87
2022-12-01T17:22:33.763Z,15.43
2022-12-01T17:25:20.636Z,33.50
2022-12-01T17:28:08.559Z,93.20
2022-12-01T17:30:54.729Z,52.37
2022-12-01T17:33:41.410Z,25.83
2022-12-01T17:36:27.542Z,3.03
2022-12-01T17:39:13.880Z,2.63
2022-12-01T17:47:35.771Z,15.73
2022-12-01T17:53:09.284Z,11.93
2022-12-01T17:55:55.581Z,4.13
2022-12-01T17:58:41.906Z,2.70
2022-12-01T18:01:30.691Z,4.53
2022-12-01T18:04:17.626Z,2.77
2022-12-01T18:18:17.148Z,3.40
2022-12-01T18:21:05.422Z,2.60
2022-12-01T18:23:52.161Z,3.97
2022-12-01T18:29:28.860Z,2.00
2022-12-01T18:35:03.434Z,1.43
2022-12-01T18:37:50.138Z,3.03
2022-12-01T18:40:37.173Z,5.40
2022-12-01T18:46:10.109Z,3.97
2022-12-01T18:49:00.933Z,4.27
2022-12-01T19:00:10.325Z,2.40
2022-12-01T19:02:56.332Z,1.77
2022-12-01T19:05:42.888Z,3.17
2022-12-01T19:08:30.361Z,3.13
2022-12-01T19:11:16.820Z,2.87
2022-12-01T19:25:13.530Z,2.10
2022-12-01T19:27:59.793Z,2.30
2022-12-01T19:30:48.373Z,2.00
2022-12-01T19:33:34.819Z,2.60
2022-12-01T19:36:22.698Z,3.23
2022-12-01T19:41:59.415Z,2.00
2022-12-01T19:47:32.710Z,3.00
2022-12-01T19:53:06.085Z,1.83
2022-12-01T20:07:01.185Z,5.23
2022-12-01T20:15:25.131Z,5.33
2022-12-01T20:21:08.377Z,2.17
2022-12-01T20:29:33.739Z,2.60
2022-12-01T20:32:23.656Z,3.50
2022-12-01T20:40:43.996Z,6.53
2022-12-01T20:46:17.006Z,3.00
2022-12-01T20:49:05.757Z,6.00
2022-12-01T20:54:38.991Z,4.67
2022-12-01T20:57:25.238Z,5.93
2022-12-01T21:00:13.190Z,6.60
2022-12-01T21:02:59.651Z,4.53
2022-12-01T21:05:47.376Z,4.73
2022-12-01T21:14:36.941Z,6.97
2022-12-01T21:37:23.702Z,3.07
2022-12-01T21:40:16.900Z,3.37
2022-12-01T21:43:13.522Z,6.13
2022-12-01T21:46:03.189Z,3.37
2022-12-01T21:51:38.634Z,4.80
2022-12-01T21:54:24.992Z,1.63
2022-12-01T22:15:22.453Z,2.47
2022-12-01T22:18:12.939Z,3.30
2022-12-01T22:38:41.818Z,1.90
2022-12-01T23:24:23.733Z,1.70
2022-12-01T23:47:09.752Z,1.50
2022-12-01T23:49:57.918Z,1.13
2022-12-01T23:52:44.143Z,1.40
2022-12-01T23:55:31.306Z,3.00
2022-12-01T23:58:19.060Z,1.90
